Tiempo atmosférico en la estación meteorológica de Valderredible, Polientes, Cantabria (720 m.)



Fecha
DESCASC
Temp. máxima en grados centígrados (hora)
DESCASC
Temp. mínima en grados centígrados (hora)
DESCASC
Temp. media en grados centígrados
DESCASC
Racha de viento máxima en m/sg (hora)
DESCASC
Velocidad máxima media en intervalos de 10 minutos(hora)
DESCASC
Precipitaciones diarias en mm
DESCASC
Precipitaciones de 00:00 a 06:00 en mm
DESCASC
Precipitaciones de 06:00 a 12:00 en mm
DESCASC
Precipitaciones de 12:00 a 18:00 en mm
DESCASC
Precipitaciones de 18:00 a 24:00 en mm
DESCASC
25-04-2019 12.8 (17:20) 4.5 (07:40) 8.7 25.83 (14:40) 9.72 (19:30) 0.1 0.1 0 0 0
24-04-2019 12.8 (15:50) 3.3 (10:20) 8.1 20.28 (16:20) 11.39 (16:20) 11.1 0 4 3.7 3.4
23-04-2019 13.5 (17:50) 5.7 (23:40) 9.6 10.83 (16:20) 5.83 (19:40) 1.2 0.1 1 0 0.1
22-04-2019 16.7 (17:10) 6.4 (00:00) 11.6 8.89 (17:00) 5.28 (15:30) 0 0 0 0 0
21-04-2019 16.2 (12:50) 1.4 (00:00) 8.8 8.89 (13:20) 4.44 (13:10) 0.7 0 0 0 0.7
20-04-2019 20.3 (14:20) 2.8 (00:00) 11.5 10.56 (15:00) 5 (14:30) 0 0 0 0 0
19-04-2019 17.9 (15:20) 8.8 (00:00) 13.3 14.17 (02:30) 6.39 (02:50) 4.4 2.5 1.9 0 0
18-04-2019 13.3 (02:30) 8.6 (00:00) 11 8.89 (04:10) 5 (04:10) 26.4 4.6 2.8 8.8 10.2
17-04-2019 19.8 (15:00) 9.1 (00:00) 14.4 11.39 (14:10) 4.44 (15:20) 6.4 0 0 0 6.4
16-04-2019 18.9 (17:50) 3.2 (00:00) 11 6.67 (18:00) 3.61 (18:40) 0 0 0 0 0
15-04-2019 21.9 (14:10) 8.6 (00:00) 15.3 19.17 (15:20) 8.06 (15:20) 0.6 0 0 0.3 0.3
14-04-2019 22 (16:00) 4.9 (00:00) 13.5 5.28 (16:00) 2.5 (16:00) 0 0 0 0 0
13-04-2019 20.4 (17:30) -2.2 (-00:0) 9.1 7.78 (16:00) 3.89 (17:40) 0 0 0 0 0
12-04-2019 17.1 (17:00) -0.7 (-00:0) 8.2 6.11 (18:30) 2.78 (19:00) 0 0 0 0 0
11-04-2019 12.3 (16:00) 0.6 (00:00) 6.5 9.72 (17:40) 4.72 (17:50) 0 0 0 0 0
10-04-2019 13.2 (16:10) 1.1 (00:00) 7.1 7.5 (17:40) 4.17 (17:40) 0.6 0 0 0.3 0.3
09-04-2019 12.8 (15:40) 2.1 (00:00) 7.5 8.89 (12:50) 5 (12:50) 5.8 0 0 3.2 2.6
08-04-2019 15.3 (15:30) 3.8 (00:00) 9.6 9.72 (15:30) 5.28 (15:10) 0.1 0.1 0 0 0
07-04-2019 12.9 (15:10) 0.4 (00:00) 6.6 11.11 (19:50) 6.11 (20:10) 0.7 0.5 0 0 0.2
06-04-2019 10 (16:10) -1.2 (-00:0) 4.4 15.28 (12:20) 7.78 (12:20) 5.7 0 0.1 1.8 3.8
05-04-2019 11 (18:00) 1.4 (00:00) 6.2 10.28 (12:50) 5.83 (13:50) 2.3 1.2 0.9 0 0.2
04-04-2019 10.9 (16:40) -4.9 (-00:0) 3 13.33 (20:30) 7.5 (17:30) 0 0 0 0 0
03-04-2019 9.4 (16:10) -0.2 (00:00) 4.6 9.17 (17:40) 4.17 (18:00) 2.1 0 0.6 1.5 0
02-04-2019 15.6 (15:10) -0.4 (00:00) 7.6 10.28 (15:00) 4.17 (16:20) 0 0 0 0 0
01-04-2019 16.3 (15:40) 1.2 (00:00) 8.7 7.22 (19:30) 3.61 (19:10) 0 0 0 0 0
31-03-2019 18.6 (17:20) -1.4 (-00:0) 8.6 7.5 (14:20) 3.61 (15:10) 0 0 0 0 0
30-03-2019 19.4 (15:00) -0.6 (-00:0) 9.4 5.83 (12:40) 2.78 (20:10) 0 0 0 0 0
29-03-2019 19.6 (16:10) -1.6 (-00:0) 9 8.33 (12:50) 4.17 (12:50) 0 0 0 0 0
28-03-2019 16.9 (14:50) -3.5 (-00:0) 6.7 9.17 (14:50) 3.89 (15:10) 0 0 0 0 0
27-03-2019 16.4 (13:20) -3.1 (-00:0) 6.6 11.39 (18:00) 4.72 (15:10) 0 0 0 0 0

Gráficas

Temp. máximas Temp. mínimas Temp. medias Precipitaciones Rachas de viento máximas Velocidades máximas media en intervalos de 10 minutos

Datos horarios

Fecha y hora oficial Temperatura (ºC) Velocidad del viento (km/h) Dirección del viento Racha (km/h) Dirección de racha Precipitación (mm) Presión (hPa) Tendencia (hPa) Humedad (%)
2019-04-25 23:00:00 7.2 15 Sudoeste 24 Sudoeste 0 -- -- 71
2019-04-25 22:00:00 7.2 15 Sudoeste 36 Sudoeste 0 -- -- 72
2019-04-25 21:00:00 7.7 13 Sudoeste 36 Sudoeste 0 -- -- 69
2019-04-25 20:00:00 7.7 15 Sudoeste 58 Oeste 0 -- -- 70
2019-04-25 19:00:00 11.1 30 Sudoeste 58 Sudoeste 0 -- -- 47
2019-04-25 18:00:00 11.4 28 Sudoeste 58 Sudoeste 0 -- -- 48
2019-04-25 17:00:00 11 21 Sudoeste 59 Oeste 0 -- -- 56
2019-04-25 16:00:00 11.5 24 Sudoeste 59 Sudoeste 0 -- -- 53
2019-04-25 15:00:00 11.2 23 Sudoeste 93 Oeste 0 -- -- 51
2019-04-25 14:00:00 11.5 27 Sudoeste 51 Sudoeste 0 -- -- 48
2019-04-25 13:00:00 9.9 27 Sudoeste 46 Sudoeste 0 -- -- 54
2019-04-25 12:00:00 7.9 24 Sudoeste 51 Sudoeste 0 -- -- 63
2019-04-25 11:00:00 6.7 26 Sudoeste 51 Sudoeste 0 -- -- 69
2019-04-25 10:00:00 6.3 20 Sudoeste 46 Sudoeste 0 -- -- 74
2019-04-25 09:00:00 5.8 18 Sudoeste 45 Sudoeste 0 -- -- 75
2019-04-25 08:00:00 4.7 14 Sudoeste 40 Sudoeste 0 -- -- 79
2019-04-25 07:00:00 4.9 17 Sudoeste 32 Sudoeste 0 -- -- 77
2019-04-25 06:00:00 5.4 10 Sudoeste 25 Sudoeste 0 -- -- 79
2019-04-25 05:00:00 6 17 Sudoeste 36 Sudoeste 0 -- -- 78
2019-04-25 04:00:00 6 14 Sudoeste 30 Sudoeste 0 -- -- 83
2019-04-25 03:00:00 5.8 4 Sudoeste 16 Sudoeste 0 -- -- 85
2019-04-25 02:00:00 6.2 5 Sudoeste 27 Sudoeste 0 -- -- 86
2019-04-25 01:00:00 6.8 12 Sudoeste 24 Sudoeste 0.1 -- -- 87
2019-04-25 00:00:00 7 13 Sudoeste 32 Sudoeste 1.8 -- -- 87
2019-04-24 23:00:00 8.1 18 Sudoeste 39 Sudoeste 0.1 -- -- 80
2019-04-24 22:00:00 8.6 22 Sudoeste 45 Sudoeste 0 -- -- 75
2019-04-24 21:00:00 8.6 23 Sudoeste 45 Sudoeste 0.6 -- -- 77
2019-04-24 20:00:00 9.1 22 Sudoeste 43 Sudoeste 0 -- -- 78
2019-04-24 19:00:00 8.5 19 Sudoeste 44 Sudoeste 0.9 -- -- 80
2019-04-24 18:00:00 9.3 23 Sudoeste 44 Oeste 0.9 -- -- 79
2019-04-24 17:00:00 10.5 25 Sudoeste 73 Sudoeste 0.4 -- -- 74
2019-04-24 16:00:00 12.2 27 Sudoeste 65 Sudoeste 0.7 -- -- 73
2019-04-24 15:00:00 10.8 27 Sudoeste 47 Sudoeste 0.5 -- -- 82
2019-04-24 14:00:00 8.9 24 Sudoeste 48 Sudoeste 0.3 -- -- 85
2019-04-24 13:00:00 6.6 16 Sur 42 Sudoeste 0.9 -- -- 90
2019-04-24 12:00:00 4.8 19 Sur 45 Sudoeste 0.9 -- -- 88
2019-04-24 11:00:00 3.5 9 Sur 29 Sur 1.8 -- -- 90
2019-04-24 10:00:00 3.5 12 Sur 38 Sudoeste 1.2 -- -- 87
2019-04-24 09:00:00 4.4 22 Sudoeste 42 Sudoeste 0.1 -- -- 79
2019-04-24 08:00:00 4.7 21 Sudoeste 35 Sudoeste 0 -- -- 77
2019-04-24 07:00:00 4.7 15 Sudoeste 39 Sudoeste 0 -- -- 75
2019-04-24 06:00:00 4.7 17 Sudoeste 34 Sudoeste 0 -- -- 76
2019-04-24 05:00:00 4.9 14 Sudoeste 27 Sudoeste 0 -- -- 75
2019-04-24 04:00:00 5.2 16 Sudoeste 29 Sudoeste 0 -- -- 75
2019-04-24 03:00:00 5.7 13 Sudoeste 30 Sudoeste 0 -- -- 78
2019-04-24 02:00:00 6 3 Sur 21 Sudoeste 0 -- -- 75
2019-04-24 01:00:00 6.1 4 Sudoeste 16 Sudoeste 0 -- -- 68
2019-04-24 00:00:00 5.8 8 Sudoeste 14 Sudoeste 0 -- -- 74
2019-04-23 23:00:00 6.8 3 Sudoeste 13 Oeste 0 -- -- 72
2019-04-23 22:00:00 7 0 Calma 14 Sur 0 -- -- 74
2019-04-23 21:00:00 8 6 Sur 27 Sudoeste 0 -- -- 66
2019-04-23 20:00:00 10.4 14 Sudoeste 39 Oeste 0.1 -- -- 57
2019-04-23 19:00:00 11.3 17 Sudoeste 32 Sudoeste 0 -- -- 41
2019-04-23 18:00:00 12.5 13 Sudoeste 35 Sudoeste 0 -- -- 44
2019-04-23 17:00:00 11.1 15 Sudoeste 39 Oeste 0 -- -- 48
2019-04-23 16:00:00 10.6 15 Sudoeste 32 Sudoeste 0 -- -- 58
2019-04-23 15:00:00 9.8 14 Sudoeste 28 Sudoeste 0 -- -- 61
2019-04-23 14:00:00 9.8 14 Sudoeste 34 Sudoeste 0 -- -- 65
2019-04-23 13:00:00 9 15 Sur 31 Sudoeste 0 -- -- 66
2019-04-23 12:00:00 9.7 15 Sudoeste 28 Sudoeste 0 -- -- 70
2019-04-23 11:00:00 8.9 14 Sudoeste 26 Sudoeste 0 -- -- 75
2019-04-23 10:00:00 8.4 9 Sudoeste 26 Sudoeste 0.1 -- -- 83
2019-04-23 09:00:00 8.9 6 Sudoeste 17 Sudoeste 0.9 -- -- 90
2019-04-23 08:00:00 10.4 8 Sudoeste 19 Sudoeste 0 -- -- 76
2019-04-23 07:00:00 9.8 9 Sudoeste 22 Sudoeste 0 -- -- 80
2019-04-23 06:00:00 9.8 14 Sudoeste 25 Sudoeste 0 -- -- 79
2019-04-23 05:00:00 9.5 0 Calma 14 Sur 0.1 -- -- 90
2019-04-23 04:00:00 10.3 8 Sudoeste 19 Sudoeste 0 -- -- 82
2019-04-23 03:00:00 11.6 12 Sudoeste 21 Sudoeste 0 -- -- 66
2019-04-23 02:00:00 11.7 9 Sur 24 Sur 0 -- -- 66
2019-04-23 01:00:00 11.2 5 Sur 17 Sudoeste 0 -- -- 66
2019-04-23 00:00:00 8.7 4 Noroeste 10 Noroeste 0 -- -- 73
2019-04-22 23:00:00 8.6 3 Noroeste 12 Noroeste 0 -- -- 71
2019-04-22 22:00:00 10.1 4 Noroeste 12 Norte 0 -- -- 65
2019-04-22 21:00:00 12.3 0 Calma 17 Sudoeste 0 -- -- 53
2019-04-22 20:00:00 14.5 9 Sudoeste 27 Sur 0 -- -- 46
2019-04-22 19:00:00 15.4 9 Sur 25 Sudoeste 0 -- -- 45
2019-04-22 18:00:00 14.5 15 Sudoeste 30 Sudoeste 0 -- -- 46
2019-04-22 17:00:00 15.8 14 Sudoeste 32 Sudoeste 0 -- -- 45
2019-04-22 16:00:00 14.7 13 Sur 30 Sudoeste 0 -- -- 47
2019-04-22 15:00:00 13.8 14 Sudoeste 29 Sur 0 -- -- 52
2019-04-22 14:00:00 13.5 15 Sudoeste 30 Sudoeste 0 -- -- 52
2019-04-22 13:00:00 13.1 15 Sudoeste 29 Sudoeste 0 -- -- 51
2019-04-22 12:00:00 12.7 10 Sudoeste 18 Sudoeste 0 -- -- 58
2019-04-22 11:00:00 10.5 2 Sur 6 Sudoeste 0 -- -- 76
2019-04-22 10:00:00 8.9 3 Sudoeste 6 Sur 0 -- -- 88
2019-04-22 09:00:00 7.7 0 Calma 5 Sudoeste 0 -- -- 94
2019-04-22 08:00:00 7 2 Oeste 6 Oeste 0 -- -- 94
2019-04-22 07:00:00 6.9 3 Sudoeste 7 Sudoeste 0 -- -- 95
2019-04-22 06:00:00 6.7 3 Norte 6 Noroeste 0 -- -- 92
2019-04-22 05:00:00 6.6 0 Calma 8 Norte 0 -- -- 94
2019-04-22 04:00:00 6.5 0 Calma 8 Noroeste 0 -- -- 94
2019-04-22 03:00:00 7.2 0 Calma 5 Noroeste 0 -- -- 94
2019-04-22 02:00:00 8.3 0 Calma 4 Nordeste 0 -- -- 93
2019-04-22 01:00:00 8.6 0 Calma 4 Nordeste 0 -- -- 92
2019-04-22 00:00:00 8.8 0 Calma 4 Este 0 -- -- 91
2019-04-21 23:00:00 9.1 0 Calma 9 Norte 0.1 -- -- 90
2019-04-21 22:00:00 9.4 3 Nordeste 18 Nordeste 0.1 -- -- 91
2019-04-21 21:00:00 9.9 7 Nordeste 17 Nordeste 0 -- -- 87
2019-04-21 20:00:00 9.9 6 Nordeste 17 Nordeste 0.3 -- -- 83
2019-04-21 19:00:00 10.4 7 Nordeste 26 Nordeste 0.2 -- -- 78
2019-04-21 18:00:00 11.9 11 Nordeste 29 Nordeste 0 -- -- 64
2019-04-21 17:00:00 11.8 8 Nordeste 28 Nordeste 0 -- -- 64
2019-04-21 16:00:00 12.3 11 Nordeste 26 Nordeste 0 -- -- 58
2019-04-21 15:00:00 13.1 12 Norte 32 Nordeste 0 -- -- 49
2019-04-21 14:00:00 14.3 13 Nordeste 32 Nordeste 0 -- -- 43
2019-04-21 13:00:00 16.2 10 Nordeste 31 Nordeste 0 -- -- 42
2019-04-21 12:00:00 14.6 10 Norte 27 Nordeste 0 -- -- 42
2019-04-21 11:00:00 12.7 11 Nordeste 27 Nordeste 0 -- -- 46
2019-04-21 10:00:00 8.1 3 Este 6 Este 0 -- -- 75
2019-04-21 09:00:00 3.2 0 Calma 7 Nordeste 0 -- -- 96
2019-04-21 08:00:00 1.6 0 Calma 3 Sudoeste 0 -- -- 96
2019-04-21 07:00:00 1.9 0 Calma 3 Sudoeste 0 -- -- 95
2019-04-21 06:00:00 2.7 0 Calma 3 Sudoeste 0 -- -- 94
2019-04-21 05:00:00 3.4 0 Calma 4 Noroeste 0 -- -- 92
2019-04-21 04:00:00 4.4 0 Calma 8 Norte 0 -- -- 89
2019-04-21 03:00:00 5.4 0 Calma 6 Noroeste 0 -- -- 88
2019-04-21 02:00:00 6.8 0 Calma 8 Norte 0 -- -- 83
2019-04-21 01:00:00 7 5 Norte 10 Norte 0 -- -- 80
2019-04-21 00:00:00 8.7 0 Calma 10 Este 0 -- -- 73
2019-04-20 23:00:00 10 3 Este 20 Norte 0 -- -- 68
2019-04-20 22:00:00 11 9 Nordeste 19 Nordeste 0 -- -- 60
2019-04-20 21:00:00 12.4 9 Nordeste 24 Nordeste 0 -- -- 52
2019-04-20 20:00:00 14.3 10 Nordeste 32 Nordeste 0 -- -- 46
2019-04-20 19:00:00 16.2 13 Nordeste 34 Nordeste 0 -- -- 41
2019-04-20 18:00:00 18.4 8 Norte 35 Nordeste 0 -- -- 37
2019-04-20 17:00:00 19.1 12 Norte 33 Nordeste 0 -- -- 36
2019-04-20 16:00:00 19.4 15 Nordeste 36 Nordeste 0 -- -- 29
2019-04-20 15:00:00 19.6 14 Nordeste 38 Nordeste 0 -- -- 28
2019-04-20 14:00:00 19.3 15 Nordeste 31 Nordeste 0 -- -- 34
2019-04-20 13:00:00 17.5 17 Nordeste 36 Nordeste 0 -- -- 37
2019-04-20 12:00:00 17.5 10 Nordeste 30 Nordeste 0 -- -- 41
2019-04-20 11:00:00 15.6 12 Nordeste 26 Nordeste 0 -- -- 48
2019-04-20 10:00:00 8.8 0 Calma 5 Oeste 0 -- -- 90
2019-04-20 09:00:00 4.6 0 Calma 4 Sudoeste 0 -- -- 96
2019-04-20 08:00:00 2.9 0 Calma -- -- 0 -- -- 96
2019-04-20 07:00:00 3.2 0 Calma -- -- 0 -- -- 96
2019-04-20 06:00:00 3.8 0 Calma -- -- 0 -- -- 95
2019-04-20 05:00:00 4.5 0 Calma 2 Noroeste 0 -- -- 95
2019-04-20 04:00:00 5.2 0 Calma 3 Sudoeste 0 -- -- 94
2019-04-20 03:00:00 6.2 0 Calma 5 Noroeste 0 -- -- 92
2019-04-20 02:00:00 7.5 0 Calma 5 Noroeste 0 -- -- 88
2019-04-20 01:00:00 8.9 3 Norte 5 Norte 0 -- -- 82
2019-04-20 00:00:00 10.7 3 Nordeste 11 Nordeste 0 -- -- 74
2019-04-19 23:00:00 11.9 5 Nordeste 15 Nordeste 0 -- -- 71
2019-04-19 22:00:00 12.8 3 Nordeste 15 Nordeste 0 -- -- 66
2019-04-19 21:00:00 13.6 5 Norte 18 Nordeste 0 -- -- 59
2019-04-19 20:00:00 14.6 8 Nordeste 23 Este 0 -- -- 55
2019-04-19 19:00:00 15.5 12 Nordeste 26 Nordeste 0 -- -- 52
2019-04-19 18:00:00 15.6 13 Nordeste 38 Nordeste 0 -- -- 47
2019-04-19 17:00:00 15.5 13 Nordeste 32 Este 0 -- -- 46
2019-04-19 16:00:00 17.1 15 Nordeste 35 Nordeste 0 -- -- 47
2019-04-19 15:00:00 16.9 10 Este 45 Nordeste 0 -- -- 49
2019-04-19 14:00:00 16 11 Nordeste 32 Este 0 -- -- 56
2019-04-19 13:00:00 13.5 11 Nordeste 36 Nordeste 0 -- -- 65
2019-04-19 12:00:00 10.9 11 Este 33 Este 0.5 -- -- 75
2019-04-19 11:00:00 10.4 10 Nordeste 29 Nordeste 0.1 -- -- 78
2019-04-19 10:00:00 10.1 12 Este 36 Este 0.1 -- -- 76
2019-04-19 09:00:00 9.6 12 Este 40 Norte 0.1 -- -- 81
2019-04-19 08:00:00 9.1 17 Nordeste 41 Nordeste 0.8 -- -- 83
2019-04-19 07:00:00 9.5 16 Nordeste 41 Nordeste 0.3 -- -- 79
2019-04-19 06:00:00 9.5 15 Nordeste 44 Nordeste 0.1 -- -- 79
2019-04-19 05:00:00 10.2 14 Nordeste 42 Nordeste 0 -- -- 76
2019-04-19 04:00:00 10 12 Este 49 Nordeste 0 -- -- 76
2019-04-19 03:00:00 10.1 21 Nordeste 51 Nordeste 0.3 -- -- 75
2019-04-19 02:00:00 9.2 12 Nordeste 22 Nordeste 0.9 -- -- 93
2019-04-19 01:00:00 9.3 6 Nordeste 12 Nordeste 1.2 -- -- 95
2019-04-19 00:00:00 8.9 2 Nordeste 8 Nordeste 1.3 -- -- 95
2019-04-18 23:00:00 9 4 Nordeste 21 Nordeste 2.8 -- -- 93
2019-04-18 22:00:00 9.2 9 Nordeste 22 Nordeste 0.6 -- -- 91
2019-04-18 21:00:00 9.6 9 Nordeste 24 Nordeste 0.9 -- -- 92
2019-04-18 20:00:00 9.7 7 Nordeste 13 Nordeste 1.5 -- -- 94
2019-04-18 19:00:00 9.8 4 Sudoeste 6 Sudeste 3.1 -- -- 94
2019-04-18 18:00:00 10 0 Calma 8 Norte 2.8 -- -- 90
2019-04-18 17:00:00 10.9 0 Calma 6 Noroeste 0.4 -- -- 80
2019-04-18 16:00:00 11.1 2 Sudoeste 11 Oeste 0.3 -- -- 77
2019-04-18 15:00:00 10.1 3 Oeste 9 Oeste 2.3 -- -- 87
2019-04-18 14:00:00 10.1 0 Calma 4 Sudoeste 1.9 -- -- 89
2019-04-18 13:00:00 10.2 0 Calma 8 Norte 1.1 -- -- 86
2019-04-18 12:00:00 9.9 0 Calma 9 Nordeste 0.8 -- -- 85
2019-04-18 11:00:00 9.5 2 Este 8 Este 0 -- -- 84
2019-04-18 10:00:00 9.7 0 Calma 11 Oeste 0 -- -- 84
2019-04-18 09:00:00 9 0 Calma 10 Oeste 0.3 -- -- 89
2019-04-18 08:00:00 8.8 0 Calma 7 Norte 0.8 -- -- 94
2019-04-18 07:00:00 8.8 0 Calma 6 Norte 0.9 -- -- 96
2019-04-18 06:00:00 9.1 0 Calma 19 Sudoeste 1.2 -- -- 92
2019-04-18 05:00:00 9.4 8 Sudoeste 32 Sudoeste 2.4 -- -- 89
2019-04-18 04:00:00 10.9 13 Oeste 26 Oeste 0.9 -- -- 83
2019-04-18 03:00:00 12.8 5 Sur 22 Sudoeste 0 -- -- 80
2019-04-18 02:00:00 13 6 Sur 26 Sudeste 0 -- -- 78
2019-04-18 01:00:00 12.5 6 Sudeste 19 Este 0.1 -- -- 83
2019-04-18 00:00:00 11.9 0 Calma 7 Sur 1 -- -- 93
2019-04-17 23:00:00 12.2 3 Sudeste 14 Sudoeste 2.1 -- -- 92
2019-04-17 22:00:00 12.6 2 Sur 28 Sudoeste 3.3 -- -- 86
2019-04-17 21:00:00 15.4 9 Sur 21 Sudeste 0 -- -- 61
2019-04-17 20:00:00 15.9 8 Sur 22 Sudeste 0 -- -- 57
2019-04-17 19:00:00 16.4 10 Sudeste 26 Sudeste 0 -- -- 55
2019-04-17 18:00:00 16.5 7 Sudeste 19 Sudeste 0 -- -- 56
2019-04-17 17:00:00 17.4 6 Sudeste 24 Sudeste 0 -- -- 51
2019-04-17 16:00:00 18.4 9 Sur 32 Sur 0 -- -- 47
2019-04-17 15:00:00 19.5 11 Sur 41 Sur 0 -- -- 45
2019-04-17 14:00:00 17.8 8 Sur 33 Sudeste 0 -- -- 51
2019-04-17 13:00:00 16.6 7 Sudeste 18 Sudeste 0 -- -- 54
2019-04-17 12:00:00 14.8 3 Este 18 Sudeste 0 -- -- 59
2019-04-17 11:00:00 13.1 2 Norte 12 Oeste 0 -- -- 65
2019-04-17 10:00:00 10.2 10 Oeste 31 Sudoeste 0 -- -- 73
2019-04-17 09:00:00 9.2 8 Noroeste 16 Oeste 0 -- -- 74
2019-04-17 08:00:00 9.2 3 Este 28 Sudeste 0 -- -- 74
2019-04-17 07:00:00 9.5 7 Noroeste 15 Noroeste 0 -- -- 73
2019-04-17 06:00:00 10.5 5 Oeste 16 Oeste 0 -- -- 67
2019-04-17 05:00:00 10.4 4 Noroeste 17 Oeste 0 -- -- 66
2019-04-17 04:00:00 10.9 4 Noroeste 12 Oeste 0 -- -- 65
2019-04-17 03:00:00 12 5 Sudeste 19 Sudeste 0 -- -- 62
2019-04-17 02:00:00 12 6 Nordeste 18 Este 0 -- -- 63
2019-04-17 01:00:00 11.6 2 Nordeste 13 Nordeste 0 -- -- 64
2019-04-17 00:00:00 12.8 3 Nordeste 13 Nordeste 0 -- -- 61
2019-04-16 23:00:00 13.2 4 Este 18 Sudeste 0 -- -- 60
2019-04-16 22:00:00 12.9 0 Calma 10 Norte 0 -- -- 54
2019-04-16 21:00:00 14.4 2 Este 12 Sudoeste 0 -- -- 36
2019-04-16 20:00:00 16.6 8 Sudoeste 21 Sudoeste 0 -- -- 31
2019-04-16 19:00:00 17.3 8 Sur 23 Sudoeste 0 -- -- 33
2019-04-16 18:00:00 18.6 9 Sur 24 Sudoeste 0 -- -- 33
2019-04-16 17:00:00 18.3 10 Sudoeste 24 Sudoeste 0 -- -- 33
2019-04-16 16:00:00 18.1 9 Sur 23 Sudeste 0 -- -- 36
2019-04-16 15:00:00 16.5 9 Sur 21 Sur 0 -- -- 37
2019-04-16 14:00:00 15.9 7 Sur 17 Sur 0 -- -- 40
2019-04-16 13:00:00 14.2 5 Sur 20 Sudoeste 0 -- -- 46
2019-04-16 12:00:00 12.2 5 Sur 10 Sur 0 -- -- 56
2019-04-16 11:00:00 11.2 3 Este 9 Este 0 -- -- 70
2019-04-16 10:00:00 8.2 2 Sudoeste 7 Sudoeste 0 -- -- 87
2019-04-16 09:00:00 4.7 0 Calma 6 Norte 0 -- -- 96
2019-04-16 08:00:00 3.4 0 Calma 5 Nordeste 0 -- -- 96
2019-04-16 07:00:00 4.9 0 Calma 4 Nordeste 0 -- -- 95
2019-04-16 06:00:00 5.2 0 Calma 6 Noroeste 0 -- -- 92
2019-04-16 05:00:00 6.1 3 Norte 7 Norte 0 -- -- 90
2019-04-16 04:00:00 7.7 0 Calma 5 Nordeste 0 -- -- 86
2019-04-16 03:00:00 8.1 0 Calma 10 Nordeste 0 -- -- 85
2019-04-16 02:00:00 8.1 3 Nordeste 13 Nordeste 0 -- -- 85
2019-04-16 01:00:00 8.4 6 Nordeste 14 Nordeste 0 -- -- 84
2019-04-16 00:00:00 8.8 6 Nordeste 22 Nordeste 0 -- -- 84
2019-04-15 23:00:00 9.1 8 Nordeste 21 Nordeste 0 -- -- 89
2019-04-15 22:00:00 9.6 6 Nordeste 16 Nordeste 0 -- -- 90
2019-04-15 21:00:00 9.8 0 Calma 21 Nordeste 0.3 -- -- 91
2019-04-15 20:00:00 10.2 12 Nordeste 30 Nordeste 0 -- -- 88
2019-04-15 19:00:00 11.3 15 Nordeste 36 Nordeste 0 -- -- 81
2019-04-15 18:00:00 13.4 13 Nordeste 33 Nordeste 0.1 -- -- 83
2019-04-15 17:00:00 14.6 5 Nordeste 13 Sudoeste 0 -- -- 77
2019-04-15 16:00:00 14.4 11 Sudoeste 69 Sudoeste 0.2 -- -- 72
2019-04-15 15:00:00 20.5 18 Sudoeste 42 Sur 0 -- -- 43
2019-04-15 14:00:00 21.1 19 Sudoeste 43 Sudoeste 0 -- -- 45
2019-04-15 13:00:00 20.6 17 Sudoeste 36 Oeste 0 -- -- 49
2019-04-15 12:00:00 18.8 10 Sur 24 Sur 0 -- -- 52
2019-04-15 11:00:00 17.9 3 Oeste 9 Sudoeste 0 -- -- 54
2019-04-15 10:00:00 14.7 3 Sudoeste 13 Oeste 0 -- -- 61
2019-04-15 09:00:00 13.3 4 Noroeste 14 Oeste 0 -- -- 70
2019-04-15 08:00:00 8.9 2 Nordeste 8 Noroeste 0 -- -- 91
2019-04-15 07:00:00 9.9 3 Noroeste 9 Noroeste 0 -- -- 90
2019-04-15 06:00:00 9.3 0 Calma 8 Noroeste 0 -- -- 89
2019-04-15 05:00:00 9.3 2 Norte 8 Norte 0 -- -- 88
2019-04-15 04:00:00 8.9 0 Calma 8 Noroeste 0 -- -- 88
2019-04-15 03:00:00 10.1 4 Norte 11 Norte 0 -- -- 84
2019-04-15 02:00:00 9.4 0 Calma 9 Noroeste 0 -- -- 86
2019-04-15 01:00:00 10.1 4 Oeste 8 Oeste 0 -- -- 83
2019-04-15 00:00:00 11.4 5 Norte 11 Noroeste 0 -- -- 76
2019-04-14 23:00:00 12.5 7 Norte 12 Noroeste 0 -- -- 69
2019-04-14 22:00:00 14.4 7 Norte 11 Norte 0 -- -- 61
2019-04-14 21:00:00 17 0 Calma 7 Sudoeste 0 -- -- 52
2019-04-14 20:00:00 18.9 2 Este 9 Norte 0 -- -- 47
2019-04-14 19:00:00 19.7 5 Nordeste 16 Norte 0 -- -- 43
2019-04-14 18:00:00 20.2 6 Nordeste 17 Nordeste 0 -- -- 42
2019-04-14 17:00:00 20.7 7 Nordeste 14 Nordeste 0 -- -- 40
2019-04-14 16:00:00 20.6 9 Nordeste 19 Nordeste 0 -- -- 38
2019-04-14 15:00:00 20.5 4 Nordeste 18 Nordeste 0 -- -- 39
2019-04-14 14:00:00 20.5 4 Este 15 Sudeste 0 -- -- 40
2019-04-14 13:00:00 18.2 5 Sudoeste 12 Sur 0 -- -- 42
2019-04-14 12:00:00 17 2 Oeste 7 Sudoeste 0 -- -- 43
2019-04-14 11:00:00 13 3 Oeste 9 Sudoeste 0 -- -- 56
2019-04-14 10:00:00 9.4 0 Calma 4 Sur 0 -- -- 72
2019-04-14 09:00:00 6.3 0 Calma -- -- 0 -- -- 87
2019-04-14 08:00:00 5 0 Calma 6 Nordeste 0 -- -- 85
2019-04-14 07:00:00 5.8 2 Norte 8 Nordeste 0 -- -- 82
2019-04-14 06:00:00 6.7 0 Calma 5 Nordeste 0 -- -- 80
2019-04-14 05:00:00 6.7 0 Calma 8 Noroeste 0 -- -- 76
2019-04-14 04:00:00 7.9 0 Calma 5 Norte 0 -- -- 73
2019-04-14 03:00:00 9.4 0 Calma 5 Norte 0 -- -- 66
2019-04-14 02:00:00 10 0 Calma 5 Noroeste 0 -- -- 66
2019-04-14 01:00:00 10.5 0 Calma 6 Noroeste 0 -- -- 57
2019-04-14 00:00:00 10.7 3 Norte 8 Noroeste 0 -- -- 55
2019-04-13 23:00:00 11.1 0 Calma 4 Norte 0 -- -- 53
2019-04-13 22:00:00 12 0 Calma 9 Nordeste 0 -- -- 48
2019-04-13 21:00:00 13.4 5 Nordeste 14 Nordeste 0 -- -- 43
2019-04-13 20:00:00 15.7 6 Nordeste 20 Sudoeste 0 -- -- 36
2019-04-13 19:00:00 17.8 12 Sudoeste 22 Sudoeste 0 -- -- 29
2019-04-13 18:00:00 18.5 13 Sudoeste 28 Oeste 0 -- -- 29
2019-04-13 17:00:00 19.9 12 Sudoeste 24 Sudoeste 0 -- -- 28
2019-04-13 16:00:00 19.5 10 Sudoeste 28 Sur 0 -- -- 28
2019-04-13 15:00:00 19 10 Sudoeste 26 Sudoeste 0 -- -- 29
2019-04-13 14:00:00 18.7 7 Sur 23 Sudoeste 0 -- -- 28
2019-04-13 13:00:00 16.8 4 Sur 8 Sur 0 -- -- 35
2019-04-13 12:00:00 10.2 2 Sur 7 Sudeste 0 -- -- 61
2019-04-13 11:00:00 4.1 2 Sudeste 7 Sudeste 0 -- -- 93
2019-04-13 10:00:00 0 0 Calma 5 Sudoeste 0 -- -- 96
2019-04-13 09:00:00 -0.7 0 Calma 4 Este 0 -- -- 96
2019-04-13 08:00:00 -1.1 0 Calma 4 Este 0 -- -- 96
2019-04-13 07:00:00 -1.3 0 Calma -- -- 0 -- -- 96
2019-04-13 06:00:00 -2.2 0 Calma 5 Nordeste 0 -- -- 95
2019-04-13 05:00:00 -1.8 0 Calma 4 Noroeste 0 -- -- 95
2019-04-13 04:00:00 -0.9 0 Calma 5 Noroeste 0 -- -- 95
2019-04-13 03:00:00 -0.2 0 Calma 4 Noroeste 0 -- -- 93
2019-04-13 02:00:00 0.5 0 Calma 7 Norte 0 -- -- 90
2019-04-13 01:00:00 2.1 0 Calma 6 Noroeste 0 -- -- 88
2019-04-13 00:00:00 3.8 3 Norte 8 Norte 0 -- -- 83
2019-04-12 23:00:00 5.3 4 Norte 6 Norte 0 -- -- 79
2019-04-12 22:00:00 7.8 3 Nordeste 8 Noroeste 0 -- -- 62
2019-04-12 21:00:00 10.6 5 Norte 13 Nordeste 0 -- -- 48
2019-04-12 20:00:00 13.3 7 Nordeste 17 Nordeste 0 -- -- 42
2019-04-12 19:00:00 14.7 10 Nordeste 22 Nordeste 0 -- -- 39
2019-04-12 18:00:00 16.2 6 Nordeste 18 Nordeste 0 -- -- 36
2019-04-12 17:00:00 17.1 5 Nordeste 20 Este 0 -- -- 36
2019-04-12 16:00:00 16.5 8 Nordeste 19 Norte 0 -- -- 36
2019-04-12 15:00:00 15.4 7 Este 18 Este 0 -- -- 33
2019-04-12 14:00:00 14.6 8 Nordeste 19 Este 0 -- -- 37
2019-04-12 13:00:00 13 7 Este 15 Este 0 -- -- 39
2019-04-12 12:00:00 10.7 6 Nordeste 13 Nordeste 0 -- -- 46
2019-04-12 11:00:00 8.1 4 Sudeste 8 Sudeste 0 -- -- 68
2019-04-12 10:00:00 3.8 2 Sur 6 Sudeste 0 -- -- 90
2019-04-12 09:00:00 0.1 0 Calma 5 Norte 0 -- -- 95
2019-04-12 08:00:00 -0.3 3 Noroeste 6 Noroeste 0 -- -- 95
2019-04-12 07:00:00 -0.2 3 Oeste 6 Norte 0 -- -- 95
2019-04-12 06:00:00 0.6 0 Calma 5 Sudoeste 0 -- -- 94
2019-04-12 05:00:00 1.5 0 Calma 6 Noroeste 0 -- -- 92
2019-04-12 04:00:00 2.7 2 Norte 7 Nordeste 0 -- -- 88
2019-04-12 03:00:00 5.6 4 Nordeste 10 Nordeste 0 -- -- 80
2019-04-12 02:00:00 6.2 5 Norte 14 Nordeste 0 -- -- 77
2019-04-12 01:00:00 6.2 5 Nordeste 10 Nordeste 0 -- -- 85
2019-04-12 00:00:00 6.4 6 Nordeste 23 Nordeste 0 -- -- 87
2019-04-11 23:00:00 6.5 11 Nordeste 24 Nordeste 0 -- -- 84
2019-04-11 22:00:00 6.7 5 Nordeste 17 Nordeste 0 -- -- 79
2019-04-11 21:00:00 7.4 4 Este 21 Nordeste 0 -- -- 75
2019-04-11 20:00:00 8.2 2 Nordeste 22 Nordeste 0 -- -- 70
2019-04-11 19:00:00 8.7 10 Nordeste 29 Nordeste 0 -- -- 71
2019-04-11 18:00:00 9.6 15 Nordeste 35 Nordeste 0 -- -- 65
2019-04-11 17:00:00 9.5 16 Nordeste 32 Nordeste 0 -- -- 60
2019-04-11 16:00:00 11.6 13 Nordeste 29 Nordeste 0 -- -- 55
2019-04-11 15:00:00 10.9 7 Nordeste 31 Nordeste 0 -- -- 55
2019-04-11 14:00:00 9.9 12 Nordeste 24 Norte 0 -- -- 53
2019-04-11 13:00:00 10.5 5 Norte 21 Nordeste 0 -- -- 51
2019-04-11 12:00:00 9.2 6 Noroeste 17 Noroeste 0 -- -- 52
2019-04-11 11:00:00 7.6 2 Sudeste 9 Sudoeste 0 -- -- 70
2019-04-11 10:00:00 4.6 2 Sur 8 Sudoeste 0 -- -- 87
2019-04-11 09:00:00 1.4 3 Sudoeste 7 Noroeste 0 -- -- 95
2019-04-11 08:00:00 0.9 3 Noroeste 9 Noroeste 0 -- -- 95
2019-04-11 07:00:00 2 7 Norte 13 Norte 0 -- -- 95
2019-04-11 06:00:00 2.8 3 Norte 9 Norte 0 -- -- 95
2019-04-11 05:00:00 2.5 3 Norte 8 Norte 0 -- -- 95
2019-04-11 04:00:00 2.3 3 Norte 8 Norte 0 -- -- 94
2019-04-11 03:00:00 3.1 0 Calma 6 Noroeste 0 -- -- 93
2019-04-11 02:00:00 5 3 Nordeste 13 Nordeste 0 -- -- 90
2019-04-11 01:00:00 5.4 4 Nordeste 10 Nordeste 0 -- -- 91
2019-04-11 00:00:00 5.3 0 Calma 5 Nordeste 0.1 -- -- 89
2019-04-10 23:00:00 5.6 3 Nordeste 15 Nordeste 0 -- -- 84
2019-04-10 22:00:00 6.4 3 Nordeste 16 Nordeste 0 -- -- 83
2019-04-10 21:00:00 6.7 6 Nordeste 17 Nordeste 0.2 -- -- 83
2019-04-10 20:00:00 7.9 5 Nordeste 25 Nordeste 0 -- -- 80
2019-04-10 19:00:00 9.1 10 Nordeste 24 Nordeste 0 -- -- 72
2019-04-10 18:00:00 8 6 Nordeste 27 Nordeste 0.3 -- -- 83
2019-04-10 17:00:00 12.2 11 Norte 26 Nordeste 0 -- -- 53
2019-04-10 16:00:00 12.2 4 Nordeste 18 Este 0 -- -- 47
2019-04-10 15:00:00 11.1 4 Sudoeste 15 Sudoeste 0 -- -- 47
2019-04-10 14:00:00 11 7 Oeste 17 Sudoeste 0 -- -- 49
2019-04-10 13:00:00 9.8 3 Sur 15 Sudoeste 0 -- -- 51
2019-04-10 12:00:00 9.4 8 Sudoeste 17 Sudoeste 0 -- -- 57
2019-04-10 11:00:00 6.6 0 Calma 9 Sudoeste 0 -- -- 75
2019-04-10 10:00:00 4.7 0 Calma 9 Sur 0 -- -- 96
2019-04-10 09:00:00 2.4 3 Sudoeste 5 Sudoeste 0 -- -- 96
2019-04-10 08:00:00 1.1 0 Calma 9 Sudoeste 0 -- -- 96
2019-04-10 07:00:00 2.1 0 Calma 7 Sudoeste 0 -- -- 96
2019-04-10 06:00:00 2.7 0 Calma -- -- 0 -- -- 96
2019-04-10 05:00:00 2.8 0 Calma 5 Noroeste 0 -- -- 96
2019-04-10 04:00:00 3.1 0 Calma 5 Sur 0 -- -- 96
2019-04-10 03:00:00 3 4 Sudoeste 5 Sudoeste 0 -- -- 96
2019-04-10 02:00:00 2.4 0 Calma 5 Sudoeste 0 -- -- 96
2019-04-10 01:00:00 1.6 0 Calma 7 Noroeste 0 -- -- 96
2019-04-10 00:00:00 2.1 4 Norte 8 Norte 0 -- -- 96
2019-04-09 23:00:00 2.9 4 Norte 9 Noroeste 0 -- -- 95
2019-04-09 22:00:00 4.5 4 Oeste 9 Sudoeste 0 -- -- 94
2019-04-09 21:00:00 5.3 3 Nordeste 7 Nordeste 0 -- -- 91
2019-04-09 20:00:00 6.3 0 Calma 12 Nordeste 0.3 -- -- 87
2019-04-09 19:00:00 5.6 5 Nordeste 16 Nordeste 2.3 -- -- 90
2019-04-09 18:00:00 6.4 6 Nordeste 26 Este 0 -- -- 79
2019-04-09 17:00:00 8.8 12 Nordeste 26 Este 0 -- -- 62
2019-04-09 16:00:00 10.8 14 Sudoeste 27 Oeste 0 -- -- 56
2019-04-09 15:00:00 11.2 9 Sudoeste 32 Sudoeste 0 -- -- 61
2019-04-09 14:00:00 7.2 14 Sudoeste 31 Sudoeste 3.2 -- -- 81
2019-04-09 13:00:00 9 14 Sudoeste 32 Sudoeste 0 -- -- 66
2019-04-09 12:00:00 9 15 Sudoeste 29 Sudoeste 0 -- -- 67
2019-04-09 11:00:00 7.2 11 Sudoeste 27 Sudoeste 0 -- -- 75
2019-04-09 10:00:00 7.1 14 Sudoeste 26 Sudoeste 0 -- -- 76
2019-04-09 09:00:00 6.4 9 Sudoeste 20 Sudoeste 0 -- -- 79
2019-04-09 08:00:00 5.5 10 Sudoeste 16 Sudoeste 0 -- -- 83
2019-04-09 07:00:00 5.4 4 Sudoeste 22 Sudoeste 0 -- -- 82
2019-04-09 06:00:00 5.2 10 Sudoeste 22 Sudoeste 0 -- -- 82
2019-04-09 05:00:00 4.1 6 Sudoeste 12 Sudoeste 0 -- -- 83
2019-04-09 04:00:00 3.9 5 Oeste 15 Sudoeste 0 -- -- 84
2019-04-09 03:00:00 2.7 3 Sudoeste 7 Oeste 0 -- -- 85
2019-04-09 02:00:00 3.7 2 Sudoeste 8 Sudoeste 0 -- -- 80
2019-04-09 01:00:00 3.8 0 Calma 10 Sudoeste 0 -- -- 79
2019-04-09 00:00:00 3.8 2 Noroeste 11 Norte 0 -- -- 72
2019-04-08 23:00:00 5.4 3 Norte 11 Noroeste 0 -- -- 65
2019-04-08 22:00:00 7.5 6 Norte 9 Noroeste 0 -- -- 53
2019-04-08 21:00:00 10.4 5 Sudoeste 22 Sudoeste 0 -- -- 43
2019-04-08 20:00:00 12.1 11 Sudoeste 30 Sudoeste 0 -- -- 39
2019-04-08 19:00:00 12.3 13 Sudoeste 30 Sudoeste 0 -- -- 38
2019-04-08 18:00:00 14.5 15 Sudoeste 32 Oeste 0 -- -- 33
2019-04-08 17:00:00 14.3 16 Sudoeste 34 Sudoeste 0 -- -- 33
2019-04-08 16:00:00 14.3 18 Sudoeste 35 Sudoeste 0 -- -- 33
2019-04-08 15:00:00 12.6 17 Oeste 34 Sudoeste 0 -- -- 37
2019-04-08 14:00:00 12.8 14 Sudoeste 32 Sudoeste 0 -- -- 45
2019-04-08 13:00:00 12.3 4 Sur 12 Sudoeste 0 -- -- 59
2019-04-08 12:00:00 10.3 4 Sudoeste 9 Oeste 0 -- -- 70
2019-04-08 11:00:00 8 5 Oeste 9 Sudoeste 0 -- -- 86
2019-04-08 10:00:00 6.8 0 Calma 4 Noroeste 0 -- -- 89
2019-04-08 09:00:00 6.1 2 Norte 5 Noroeste 0 -- -- 94
2019-04-08 08:00:00 5.4 2 Este 16 Sudoeste 0 -- -- 95
2019-04-08 07:00:00 5.4 9 Sudoeste 17 Sur 0 -- -- 95
2019-04-08 06:00:00 5.5 3 Sur 6 Sur 0.1 -- -- 94
2019-04-08 05:00:00 5.4 3 Sudoeste 11 Sudoeste 0 -- -- 92
2019-04-08 04:00:00 5.3 4 Sudoeste 14 Sudoeste 0 -- -- 90
2019-04-08 03:00:00 5.8 8 Sudoeste 15 Sudoeste 0 -- -- 85
2019-04-08 02:00:00 6.3 9 Sudoeste 27 Sudoeste 0 -- -- 83
2019-04-08 01:00:00 5.8 11 Sudoeste 24 Sudoeste 0 -- -- 84
2019-04-08 00:00:00 5.6 7 Oeste 32 Sudoeste 0.2 -- -- 84
2019-04-07 23:00:00 5.8 14 Sudoeste 25 Sudoeste 0 -- -- 82
2019-04-07 22:00:00 6.6 12 Sudoeste 29 Sudoeste 0 -- -- 75
2019-04-07 21:00:00 7.2 17 Sudoeste 36 Sudoeste 0 -- -- 69
2019-04-07 20:00:00 9.5 21 Sudoeste 40 Sudoeste 0 -- -- 47
2019-04-07 19:00:00 10.6 15 Sudoeste 34 Sudoeste 0 -- -- 39
2019-04-07 18:00:00 11.2 19 Sudoeste 37 Sudoeste 0 -- -- 38
2019-04-07 17:00:00 11.5 15 Sudoeste 33 Sudoeste 0 -- -- 40
2019-04-07 16:00:00 11.1 17 Sudoeste 29 Sudoeste 0 -- -- 40
2019-04-07 15:00:00 12.2 9 Sur 26 Sudoeste 0 -- -- 47
2019-04-07 14:00:00 11.7 10 Sur 24 Sudoeste 0 -- -- 49
2019-04-07 13:00:00 10.1 5 Sudoeste 12 Sudoeste 0 -- -- 55
2019-04-07 12:00:00 8.7 0 Calma 10 Oeste 0 -- -- 62
2019-04-07 11:00:00 5.4 3 Sudoeste 12 Sudoeste 0 -- -- 74
2019-04-07 10:00:00 3 5 Sudoeste 9 Sudoeste 0 -- -- 92
2019-04-07 09:00:00 2 2 Sudoeste 5 Oeste 0 -- -- 97
2019-04-07 08:00:00 1.1 3 Sudoeste 5 Noroeste 0 -- -- 97
2019-04-07 07:00:00 0.6 5 Norte 8 Noroeste 0 -- -- 96
2019-04-07 06:00:00 1.5 0 Calma 5 Norte 0 -- -- 97
2019-04-07 05:00:00 2 3 Oeste 5 Noroeste 0.5 -- -- 97
2019-04-07 04:00:00 1.8 0 Calma 4 Sudoeste 0 -- -- 97
2019-04-07 03:00:00 2 3 Sudoeste 5 Sudoeste 0 -- -- 97
2019-04-07 02:00:00 1.7 0 Calma 4 Sudoeste 0 -- -- 97
2019-04-07 01:00:00 1.5 0 Calma 9 Nordeste 0 -- -- 96
2019-04-07 00:00:00 2.2 0 Calma 4 Sudoeste 0 -- -- 96
2019-04-06 23:00:00 2.2 0 Calma 5 Este 0.1 -- -- 95
2019-04-06 22:00:00 2.9 2 Este 8 Sudoeste 1.5 -- -- 92
2019-04-06 21:00:00 3.7 5 Oeste 10 Oeste 0.7 -- -- 91
2019-04-06 20:00:00 4.5 6 Este 23 Nordeste 1.5 -- -- 87
2019-04-06 19:00:00 7.4 8 Sudoeste 19 Sudoeste 0 -- -- 68
2019-04-06 18:00:00 6.9 11 Sudoeste 23 Sudoeste 0.1 -- -- 78
2019-04-06 17:00:00 5.4 14 Sudoeste 35 Sudoeste 0.8 -- -- 79
2019-04-06 16:00:00 8.8 11 Sur 42 Sudoeste 0 -- -- 64
2019-04-06 15:00:00 7.7 21 Sudoeste 36 Oeste 0.2 -- -- 68
2019-04-06 14:00:00 5.9 15 Sudoeste 36 Oeste 0.7 -- -- 79
2019-04-06 13:00:00 6.9 18 Sudoeste 55 Oeste 0 -- -- 60
2019-04-06 12:00:00 7.4 19 Sudoeste 39 Sudoeste 0 -- -- 71
2019-04-06 11:00:00 5.7 11 Sudoeste 25 Sudoeste 0.1 -- -- 88
2019-04-06 10:00:00 4 14 Sudoeste 23 Sudoeste 0 -- -- 86
2019-04-06 09:00:00 3.4 8 Sudoeste 26 Sudoeste 0 -- -- 88
2019-04-06 08:00:00 3 14 Sudoeste 31 Sudoeste 0 -- -- 86
2019-04-06 07:00:00 2.8 3 Sur 26 Oeste 0 -- -- 84
2019-04-06 06:00:00 2.5 13 Sudoeste 24 Oeste 0 -- -- 86
2019-04-06 05:00:00 2 9 Sudoeste 26 Sudoeste 0 -- -- 90
2019-04-06 04:00:00 -0.1 2 Sudoeste 9 Norte 0 -- -- 95
2019-04-06 03:00:00 -0.8 3 Noroeste 9 Norte 0 -- -- 93
2019-04-06 02:00:00 -0.2 6 Norte 12 Norte 0 -- -- 92
2019-04-06 01:00:00 0.6 7 Norte 10 Norte 0 -- -- 89
2019-04-06 00:00:00 1.4 0 Calma 4 Sudoeste 0 -- -- 87
2019-04-05 23:00:00 3.4 2 Sur 16 Sudoeste 0 -- -- 79
2019-04-05 22:00:00 4.9 8 Sudoeste 21 Oeste 0 -- -- 76
2019-04-05 21:00:00 5.2 0 Calma 35 Oeste 0.2 -- -- 76
2019-04-05 20:00:00 8.1 8 Sur 19 Sudoeste 0 -- -- 48
2019-04-05 19:00:00 8.2 11 Sudoeste 28 Sudoeste 0 -- -- 47
2019-04-05 18:00:00 10.3 14 Sudoeste 28 Sudoeste 0 -- -- 43
2019-04-05 17:00:00 8 11 Sur 29 Sudoeste 0 -- -- 53
2019-04-05 16:00:00 7.9 14 Sudoeste 32 Sudoeste 0 -- -- 52
2019-04-05 15:00:00 8.1 13 Sur 34 Sudoeste 0 -- -- 54
2019-04-05 14:00:00 8.9 19 Sudoeste 37 Sudoeste 0 -- -- 52
2019-04-05 13:00:00 9.6 19 Sudoeste 37 Sudoeste 0 -- -- 61
2019-04-05 12:00:00 7.1 12 Sudoeste 26 Sudoeste 0 -- -- 77
2019-04-05 11:00:00 5.9 9 Sudoeste 17 Sudoeste 0 -- -- 86
2019-04-05 10:00:00 5.2 8 Sudoeste 25 Sudoeste 0.8 -- -- 90
2019-04-05 09:00:00 4.8 6 Sudoeste 14 Sudoeste 0 -- -- 90
2019-04-05 08:00:00 4.3 5 Sudoeste 21 Sudoeste 0 -- -- 90
2019-04-05 07:00:00 4.1 7 Sudoeste 25 Sudoeste 0.1 -- -- 90
2019-04-05 06:00:00 4.1 13 Sudoeste 31 Sudoeste 0.2 -- -- 87
2019-04-05 05:00:00 4.1 11 Sudoeste 31 Sudoeste 0.7 -- -- 87
2019-04-05 04:00:00 4.4 12 Sudoeste 31 Sur 0.2 -- -- 85
2019-04-05 03:00:00 4.1 15 Sudoeste 30 Sudoeste 0.1 -- -- 86
2019-04-05 02:00:00 4.2 13 Sudoeste 26 Sudoeste 0 -- -- 85
2019-04-05 01:00:00 4 10 Sudoeste 19 Sudoeste 0 -- -- 84
2019-04-05 00:00:00 3.9 8 Sudoeste 21 Sudoeste 0 -- -- 85
2019-04-04 23:00:00 4.1 9 Sudoeste 28 Sudoeste 0 -- -- 85
2019-04-04 22:00:00 4.1 14 Sudoeste 30 Sudoeste 0 -- -- 84
2019-04-04 21:00:00 5.8 18 Sudoeste 48 Sudoeste 0 -- -- 61
2019-04-04 20:00:00 8 23 Sudoeste 43 Sudoeste 0 -- -- 39
2019-04-04 19:00:00 9.5 23 Sudoeste 44 Sudoeste 0 -- -- 35
2019-04-04 18:00:00 9.4 23 Sudoeste 44 Sudoeste 0 -- -- 34
2019-04-04 17:00:00 10.7 23 Sudoeste 46 Sudoeste 0 -- -- 34
2019-04-04 16:00:00 9.9 19 Sudoeste 44 Sudoeste 0 -- -- 36
2019-04-04 15:00:00 9.8 24 Sudoeste 41 Sudoeste 0 -- -- 36
2019-04-04 14:00:00 8.9 19 Sudoeste 37 Sudoeste 0 -- -- 38
2019-04-04 13:00:00 8 15 Sudoeste 30 Sudoeste 0 -- -- 42
2019-04-04 12:00:00 6.9 14 Sudoeste 26 Sudoeste 0 -- -- 45
2019-04-04 11:00:00 4.5 3 Sur 9 Sudeste 0 -- -- 62
2019-04-04 10:00:00 -0.2 3 Sur 6 Sudoeste 0 -- -- 85
2019-04-04 09:00:00 -4 3 Sudoeste 5 Sudoeste 0 -- -- 95
2019-04-04 08:00:00 -4.6 0 Calma 5 Sudoeste 0 -- -- 95
2019-04-04 07:00:00 -4.1 3 Sudoeste 9 Sudoeste 0 -- -- 94
2019-04-04 06:00:00 -3.5 0 Calma 6 Oeste 0 -- -- 93
2019-04-04 05:00:00 -2.7 0 Calma 10 Oeste 0 -- -- 92
2019-04-04 04:00:00 -2 4 Sudoeste 7 Oeste 0 -- -- 91
2019-04-04 03:00:00 -0.7 2 Sudoeste 7 Oeste 0 -- -- 87
2019-04-04 02:00:00 -0.1 0 Calma 7 Nordeste 0 -- -- 86
2019-04-04 01:00:00 -0.6 2 Noroeste 6 Norte 0 -- -- 81
2019-04-04 00:00:00 -0.2 0 Calma 7 Oeste 0 -- -- 74
2019-04-03 23:00:00 1.3 3 Oeste 14 Noroeste 0 -- -- 68
2019-04-03 22:00:00 0.2 6 Norte 11 Norte 0 -- -- 64
2019-04-03 21:00:00 3.5 5 Noroeste 21 Oeste 0 -- -- 50
2019-04-03 20:00:00 4.4 6 Norte 16 Noroeste 0 -- -- 52
2019-04-03 19:00:00 5.7 6 Noroeste 27 Noroeste 0 -- -- 56
2019-04-03 18:00:00 5.5 15 Norte 33 Norte 0 -- -- 55
2019-04-03 17:00:00 7.9 11 Norte 28 Nordeste 0 -- -- 48
2019-04-03 16:00:00 8.6 4 Noroeste 16 Norte 0 -- -- 53
2019-04-03 15:00:00 8.1 5 Norte 22 Este 0.8 -- -- 70
2019-04-03 14:00:00 4.2 10 Nordeste 24 Nordeste 0.7 -- -- 79
2019-04-03 13:00:00 8.1 7 Este 19 Nordeste 0 -- -- 67
2019-04-03 12:00:00 5 5 Este 18 Nordeste 0.1 -- -- 78
2019-04-03 11:00:00 5 6 Nordeste 12 Nordeste 0 -- -- 81
2019-04-03 10:00:00 4.9 0 Calma 4 Nordeste 0 -- -- 87
2019-04-03 09:00:00 3.7 0 Calma 10 Nordeste 0 -- -- 92
2019-04-03 08:00:00 3.9 2 Nordeste 8 Nordeste 0 -- -- 92
2019-04-03 07:00:00 4.2 3 Nordeste 10 Sudeste 0.5 -- -- 90
2019-04-03 06:00:00 4.9 4 Nordeste 9 Nordeste 0 -- -- 86
2019-04-03 05:00:00 5.2 2 Este 9 Nordeste 0 -- -- 83
2019-04-03 04:00:00 5.3 3 Nordeste 12 Este 0 -- -- 84
2019-04-03 03:00:00 5.3 6 Nordeste 21 Nordeste 0 -- -- 86
2019-04-03 02:00:00 6 2 Este 9 Este 0 -- -- 83
2019-04-03 01:00:00 6.2 5 Nordeste 19 Nordeste 0 -- -- 82
2019-04-03 00:00:00 6.5 6 Nordeste 22 Nordeste 0 -- -- 82
2019-04-02 23:00:00 6.8 9 Este 27 Nordeste 0 -- -- 83
2019-04-02 22:00:00 7.5 10 Nordeste 23 Este 0 -- -- 80
2019-04-02 21:00:00 7.4 7 Nordeste 28 Nordeste 0 -- -- 83
2019-04-02 20:00:00 8.2 12 Nordeste 31 Nordeste 0 -- -- 79
2019-04-02 19:00:00 8.4 11 Nordeste 26 Nordeste 0 -- -- 77
2019-04-02 18:00:00 10.4 12 Nordeste 30 Nordeste 0 -- -- 61
2019-04-02 17:00:00 12.9 12 Nordeste 33 Nordeste 0 -- -- 51
2019-04-02 16:00:00 14.2 10 Nordeste 24 Nordeste 0 -- -- 43
2019-04-02 15:00:00 14.3 9 Nordeste 37 Nordeste 0 -- -- 42
2019-04-02 14:00:00 14.7 8 Nordeste 26 Nordeste 0 -- -- 46
2019-04-02 13:00:00 13.2 9 Nordeste 26 Nordeste 0 -- -- 49
2019-04-02 12:00:00 11 8 Nordeste 29 Nordeste 0 -- -- 56
2019-04-02 11:00:00 9 4 Este 11 Este 0 -- -- 75
2019-04-02 10:00:00 2.7 2 Este 5 Este 0 -- -- 97
2019-04-02 09:00:00 0.2 0 Calma 5 Nordeste 0 -- -- 96
2019-04-02 08:00:00 0 0 Calma 4 Noroeste 0 -- -- 96
2019-04-02 07:00:00 0.9 0 Calma 4 Norte 0 -- -- 95
2019-04-02 06:00:00 1.7 0 Calma 7 Noroeste 0 -- -- 95
2019-04-02 05:00:00 2.6 0 Calma 8 Noroeste 0 -- -- 92
2019-04-02 04:00:00 4.1 0 Calma 5 Nordeste 0 -- -- 91
2019-04-02 03:00:00 4.8 0 Calma 8 Noroeste 0 -- -- 90
2019-04-02 02:00:00 5.8 3 Noroeste 7 Noroeste 0 -- -- 87
2019-04-02 01:00:00 6.6 3 Norte 9 Norte 0 -- -- 86
2019-04-02 00:00:00 7.2 0 Calma 5 Noroeste 0 -- -- 83
2019-04-01 23:00:00 8.8 0 Calma 6 Sudeste 0 -- -- 77
2019-04-01 22:00:00 9.6 4 Nordeste 16 Nordeste 0 -- -- 72
2019-04-01 21:00:00 10.2 7 Nordeste 22 Nordeste 0 -- -- 68
2019-04-01 20:00:00 11.7 10 Nordeste 26 Nordeste 0 -- -- 61
2019-04-01 19:00:00 13.3 10 Nordeste 24 Nordeste 0 -- -- 54
2019-04-01 18:00:00 15.6 8 Nordeste 20 Nordeste 0 -- -- 45
2019-04-01 17:00:00 14.5 8 Nordeste 17 Este 0 -- -- 45
2019-04-01 16:00:00 15.1 5 Este 23 Nordeste 0 -- -- 44
2019-04-01 15:00:00 13.8 7 Este 17 Este 0 -- -- 47
2019-04-01 14:00:00 14 6 Nordeste 23 Este 0 -- -- 46
2019-04-01 13:00:00 14.8 9 Este 23 Este 0 -- -- 47
2019-04-01 12:00:00 11.3 3 Sudeste 9 Este 0 -- -- 55
2019-04-01 11:00:00 7.5 2 Sur 6 Sur 0 -- -- 75
2019-04-01 10:00:00 3.2 0 Calma 3 Sudoeste 0 -- -- 88
2019-04-01 09:00:00 2 0 Calma -- -- 0 -- -- 91
2019-04-01 08:00:00 2.1 0 Calma 3 Sudoeste 0 -- -- 91
2019-04-01 07:00:00 2 0 Calma 5 Sudoeste 0 -- -- 91
2019-04-01 06:00:00 1.6 0 Calma 4 Sudoeste 0 -- -- 91
2019-04-01 05:00:00 1.8 0 Calma 8 Sudoeste 0 -- -- 88
2019-04-01 04:00:00 2.5 0 Calma 8 Oeste 0 -- -- 87
2019-04-01 03:00:00 2 0 Calma 8 Oeste 0 -- -- 85
2019-04-01 02:00:00 2.7 3 Sudoeste 8 Sudoeste 0 -- -- 82
2019-04-01 01:00:00 3.8 0 Calma 9 Norte 0 -- -- 72
2019-04-01 00:00:00 5.6 5 Noroeste 10 Noroeste 0 -- -- 63
2019-03-31 23:00:00 7 5 Norte 10 Norte 0 -- -- 55
2019-03-31 22:00:00 9.8 0 Calma 9 Norte 0 -- -- 45
2019-03-31 21:00:00 12.4 5 Nordeste 23 Este 0 -- -- 40
2019-03-31 20:00:00 14.8 10 Este 22 Nordeste 0 -- -- 34
2019-03-31 19:00:00 15.5 9 Nordeste 20 Nordeste 0 -- -- 30
2019-03-31 18:00:00 16.4 6 Este 19 Este 0 -- -- 29
2019-03-31 17:00:00 17.8 6 Este 19 Este 0 -- -- 28
2019-03-31 16:00:00 15.5 6 Este 26 Nordeste 0 -- -- 32
2019-03-31 15:00:00 17.2 11 Nordeste 27 Nordeste 0 -- -- 32
2019-03-31 14:00:00 17.5 11 Nordeste 27 Nordeste 0 -- -- 32
2019-03-31 13:00:00 15.7 11 Nordeste 22 Nordeste 0 -- -- 35
2019-03-31 12:00:00 13.3 5 Este 12 Nordeste 0 -- -- 45
2019-03-31 11:00:00 7.3 0 Calma 7 Sudeste 0 -- -- 67
2019-03-31 10:00:00 3.7 2 Este 5 Este 0 -- -- 84
2019-03-31 09:00:00 -0.5 0 Calma 4 Sudeste 0 -- -- 95
2019-03-31 08:00:00 -1.2 0 Calma 2 Nordeste 0 -- -- 95
2019-03-31 07:00:00 -0.3 0 Calma 5 Nordeste 0 -- -- 95
2019-03-31 06:00:00 0.1 0 Calma 6 Este 0 -- -- 92
2019-03-31 05:00:00 1 0 Calma 3 Este 0 -- -- 92
2019-03-31 03:00:00 3.4 0 Calma 6 Noroeste 0 -- -- 81
2019-03-31 01:00:00 5.3 0 Calma 4 Sudoeste 0 -- -- 80
2019-03-31 00:00:00 6.7 0 Calma 5 Nordeste 0 -- -- 73
2019-03-30 23:00:00 7.7 0 Calma 7 Sudeste 0 -- -- 73
2019-03-30 22:00:00 8.5 2 Nordeste 12 Nordeste 0 -- -- 71
2019-03-30 21:00:00 9.2 5 Nordeste 15 Nordeste 0 -- -- 66
2019-03-30 20:00:00 11.5 6 Nordeste 13 Norte 0 -- -- 54
2019-03-30 19:00:00 14.4 5 Norte 14 Nordeste 0 -- -- 46
2019-03-30 18:00:00 15.6 5 Nordeste 11 Este 0 -- -- 30
2019-03-30 17:00:00 16.6 5 Este 15 Este 0 -- -- 30
2019-03-30 16:00:00 16.9 5 Sudeste 13 Sudeste 0 -- -- 28
2019-03-30 15:00:00 18 4 Sudoeste 15 Sudeste 0 -- -- 27
2019-03-30 14:00:00 18.8 6 Sudeste 19 Sur 0 -- -- 28
2019-03-30 13:00:00 16.9 5 Sudoeste 21 Sur 0 -- -- 33
2019-03-30 12:00:00 14.9 6 Sudoeste 17 Sudoeste 0 -- -- 38
2019-03-30 11:00:00 12.9 3 Oeste 11 Oeste 0 -- -- 43
2019-03-30 10:00:00 9.7 0 Calma 5 Sur 0 -- -- 54
2019-03-30 09:00:00 4.3 0 Calma 4 Sur 0 -- -- 75
2019-03-30 08:00:00 -0.1 0 Calma 0 Calma 0 -- -- 89
2019-03-30 07:00:00 0 0 Calma 4 Norte 0 -- -- 86
2019-03-30 06:00:00 1.1 0 Calma 6 Norte 0 -- -- 81
2019-03-30 05:00:00 2.9 0 Calma 11 Norte 0 -- -- 71
2019-03-30 04:00:00 4.5 3 Norte 7 Norte 0 -- -- 65
2019-03-30 03:00:00 5.4 0 Calma 14 Sudoeste 0 -- -- 58
2019-03-30 02:00:00 4.8 0 Calma 9 Norte 0 -- -- 59
2019-03-30 01:00:00 4.9 2 Noroeste 12 Norte 0 -- -- 56
2019-03-30 00:00:00 6.4 4 Norte 12 Norte 0 -- -- 48
2019-03-29 23:00:00 9.3 2 Oeste 10 Nordeste 0 -- -- 40
2019-03-29 22:00:00 9.5 4 Norte 15 Este 0 -- -- 39
2019-03-29 21:00:00 11.7 4 Este 18 Sur 0 -- -- 37
2019-03-29 20:00:00 11.3 3 Norte 10 Sudoeste 0 -- -- 31
2019-03-29 19:00:00 16.3 8 Sudoeste 21 Sudoeste 0 -- -- 25
2019-03-29 18:00:00 18 8 Sur 23 Sur 0 -- -- 23
2019-03-29 17:00:00 18.6 9 Sur 23 Sudoeste 0 -- -- 24
2019-03-29 16:00:00 18.9 8 Sur 24 Oeste 0 -- -- 24
2019-03-29 15:00:00 18 14 Sudoeste 27 Sudoeste 0 -- -- 26
2019-03-29 14:00:00 16.9 12 Sudoeste 26 Sudoeste 0 -- -- 28
2019-03-29 13:00:00 15.7 13 Sudoeste 30 Sudoeste 0 -- -- 29
2019-03-29 12:00:00 13.7 6 Sudoeste 12 Sudoeste 0 -- -- 42
2019-03-29 11:00:00 5.4 2 Sur 6 Sudeste 0 -- -- 83
2019-03-29 10:00:00 0.9 0 Calma 5 Sudeste 0 -- -- 98
2019-03-29 09:00:00 -0.7 0 Calma 5 Sudoeste 0 -- -- 98
2019-03-29 08:00:00 -1 0 Calma 5 Nordeste 0 -- -- 98
2019-03-29 07:00:00 -0.9 0 Calma 5 Este 0 -- -- 98
2019-03-29 06:00:00 -0.9 0 Calma 0 Calma 0 -- -- 97
2019-03-29 05:00:00 -1.2 0 Calma 3 Sudoeste 0 -- -- 97
2019-03-29 04:00:00 -1.6 0 Calma 5 Noroeste 0 -- -- 96
2019-03-29 03:00:00 -0.9 0 Calma 8 Noroeste 0 -- -- 96
2019-03-29 02:00:00 -0.3 0 Calma 6 Noroeste 0 -- -- 95
2019-03-29 01:00:00 0.8 0 Calma 9 Norte 0 -- -- 95
2019-03-29 00:00:00 2 0 Calma 9 Noroeste 0 -- -- 94
2019-03-28 23:00:00 4.1 3 Norte 7 Norte 0 -- -- 91
2019-03-28 22:00:00 5.5 0 Calma 12 Nordeste 0 -- -- 89
2019-03-28 21:00:00 7.1 3 Sudeste 10 Este 0 -- -- 83
2019-03-28 20:00:00 8.7 5 Nordeste 21 Nordeste 0 -- -- 70
2019-03-28 19:00:00 11.4 6 Norte 21 Nordeste 0 -- -- 53
2019-03-28 18:00:00 13.8 6 Norte 23 Nordeste 0 -- -- 44
2019-03-28 17:00:00 15 10 Nordeste 26 Nordeste 0 -- -- 40
2019-03-28 16:00:00 16 12 Nordeste 31 Nordeste 0 -- -- 39
2019-03-28 15:00:00 16.1 12 Nordeste 33 Nordeste 0 -- -- 33
2019-03-28 14:00:00 15.1 10 Nordeste 28 Nordeste 0 -- -- 38
2019-03-28 13:00:00 14.8 10 Este 29 Este 0 -- -- 34
2019-03-28 12:00:00 13.1 10 Este 28 Nordeste 0 -- -- 40
2019-03-28 11:00:00 10.4 4 Sur 12 Sur 0 -- -- 59
2019-03-28 10:00:00 3.8 3 Sudoeste 8 Sudoeste 0 -- -- 79
2019-03-28 09:00:00 0 0 Calma 6 Sur 0 -- -- 91
2019-03-28 08:00:00 -2.3 2 Noroeste 4 Sudeste 0 -- -- 95
2019-03-28 07:00:00 -3.2 0 Calma 6 Norte 0 -- -- 95
2019-03-28 06:00:00 -2.8 0 Calma 4 Oeste 0 -- -- 95
2019-03-28 05:00:00 -2.8 0 Calma 4 Noroeste 0 -- -- 94
2019-03-28 04:00:00 -2.3 0 Calma 4 Noroeste 0 -- -- 93
2019-03-28 03:00:00 -2 0 Calma 4 Noroeste 0 -- -- 92
2019-03-28 02:00:00 -1.4 0 Calma 4 Norte 0 -- -- 88
2019-03-28 01:00:00 -0.5 0 Calma 5 Nordeste 0 -- -- 83
2019-03-28 00:00:00 -0.3 0 Calma 8 Noroeste 0 -- -- 80
2019-03-27 23:00:00 1 0 Calma 9 Noroeste 0 -- -- 76
2019-03-27 22:00:00 3.3 0 Calma 8 Sudeste 0 -- -- 76
2019-03-27 21:00:00 5.2 3 Este 15 Este 0 -- -- 75
2019-03-27 20:00:00 6.8 4 Este 22 Nordeste 0 -- -- 70
2019-03-27 19:00:00 8.9 16 Nordeste 33 Nordeste 0 -- -- 55
2019-03-27 18:00:00 11.3 16 Nordeste 41 Nordeste 0 -- -- 48
2019-03-27 17:00:00 13.8 14 Nordeste 35 Nordeste 0 -- -- 39
2019-03-27 16:00:00 15.1 10 Norte 34 Nordeste 0 -- -- 33
2019-03-27 15:00:00 14.9 16 Nordeste 35 Nordeste 0 -- -- 31
2019-03-27 14:00:00 15.4 14 Nordeste 32 Nordeste 0 -- -- 28
2019-03-27 13:00:00 15.3 13 Este 35 Este 0 -- -- 20
2019-03-27 12:00:00 15 9 Nordeste 28 Nordeste 0 -- -- 26
2019-03-27 11:00:00 11.9 4 Sudeste 9 Este 0 -- -- 40
2019-03-27 10:00:00 5.9 0 Calma 5 Oeste 0 -- -- 66
2019-03-27 09:00:00 1.1 0 Calma 4 Este 0 -- -- 84
2019-03-27 08:00:00 -2.4 0 Calma 3 Sudoeste 0 -- -- 94
2019-03-27 07:00:00 -2.6 0 Calma 3 Oeste 0 -- -- 93
2019-03-27 06:00:00 -2 0 Calma 3 Sudoeste 0 -- -- 92
2019-03-27 05:00:00 -1.7 0 Calma 5 Noroeste 0 -- -- 91
2019-03-27 04:00:00 -0.5 0 Calma 9 Sudoeste 0 -- -- 88
2019-03-27 03:00:00 0.1 4 Sudoeste 8 Sudoeste 0 -- -- 83
2019-03-27 02:00:00 2.4 2 Oeste 10 Sur 0 -- -- 78
2019-03-27 01:00:00 2.7 0 Calma 12 Nordeste 0 -- -- 70
2019-03-27 00:00:00 3.9 3 Nordeste 19 Nordeste 0 -- -- 58